KCDW

Essex County Airport

Caldwell, New Jersey, USA
METAR KCDW 181353Z 23004KT 9SM SCT005 24/24 A2986 RMK AO2 SLP115 T02390239 $
Observed Flight Rules
Aug-18 @ 13:53 UTC (60 minutes ago) Visual Flight Rules
Wind Visibility Clouds
230° at 4 knots 9 miles
  • Scattered at 500' AGL
Temperatures Readings
Current 24°C / 75°F
Dewpoint 24°C / 75°F
Humidity 100%
Altimeter 29.86" Hg
Pressure 1011.5 hPa
Elevation 64
METAR KCDW 181353Z 23004KT 9SM SCT005 24/24 A2986 RMK AO2 SLP115 T02390239 $
Observed Flight Rules
Aug-18 @ 13:53 UTC
(60 minutes ago)
VFR
Wind Visibility
230° at 4 knots 9 miles
Clouds
  • Scattered at 500' AGL
Temperature Dewpoint
24°C / 75°F 24°C / 75°F
Humidity Altimeter Pressure
100% 29.86" Hg 1011.5 hPa